createdAt,value
2022-07-30T00:00:23.814Z,12.23
2022-07-30T00:02:52.579Z,12.07
2022-07-30T00:05:19.570Z,9.18
2022-07-30T00:07:46.362Z,9.43
2022-07-30T00:10:13.207Z,10.07
2022-07-30T00:12:39.932Z,10.13
2022-07-30T00:15:07.466Z,9.30
2022-07-30T00:17:34.248Z,8.50
2022-07-30T00:20:01.285Z,8.13
2022-07-30T00:22:30.865Z,12.10
2022-07-30T00:24:57.726Z,10.82
2022-07-30T00:27:24.595Z,8.85
2022-07-30T00:29:51.299Z,9.20
2022-07-30T00:32:18.045Z,8.65
2022-07-30T00:34:44.880Z,9.05
2022-07-30T00:37:11.535Z,10.18
2022-07-30T00:39:38.291Z,11.18
2022-07-30T00:42:05.090Z,7.10
2022-07-30T00:44:31.902Z,7.25
2022-07-30T00:46:59.335Z,8.23
2022-07-30T00:49:26.970Z,9.52
2022-07-30T00:51:54.106Z,12.93
2022-07-30T00:54:21.571Z,7.88
2022-07-30T00:56:49.070Z,6.93
2022-07-30T00:59:16.161Z,7.90
2022-07-30T01:01:42.912Z,8.27
2022-07-30T01:04:14.084Z,13.02
2022-07-30T01:06:40.863Z,8.10
2022-07-30T01:09:08.342Z,8.52
2022-07-30T01:11:40.170Z,10.05
2022-07-30T01:14:08.180Z,6.88
2022-07-30T01:16:36.520Z,7.65
2022-07-30T01:19:26.334Z,7.00
2022-07-30T01:22:06.969Z,7.07
2022-07-30T01:24:36.860Z,8.73
2022-07-30T01:27:04.673Z,9.75
2022-07-30T01:29:33.835Z,10.52
2022-07-30T01:32:04.711Z,10.60
2022-07-30T01:34:33.996Z,6.93
2022-07-30T01:37:02.892Z,8.77
2022-07-30T01:39:30.701Z,7.10
2022-07-30T01:41:58.888Z,7.22
2022-07-30T01:44:27.311Z,7.53
2022-07-30T01:46:55.889Z,9.82
2022-07-30T01:49:26.025Z,7.18
2022-07-30T01:51:54.899Z,8.55
2022-07-30T01:54:25.508Z,7.30
2022-07-30T01:56:55.401Z,9.52
2022-07-30T01:59:25.060Z,12.02
2022-07-30T02:01:52.810Z,7.43
2022-07-30T02:04:19.936Z,9.23
2022-07-30T02:07:11.296Z,8.15
2022-07-30T02:09:47.362Z,12.57
2022-07-30T02:12:30.398Z,8.93
2022-07-30T02:15:20.709Z,8.32
2022-07-30T02:18:01.871Z,9.45
2022-07-30T02:20:32.104Z,6.63
2022-07-30T02:23:09.290Z,7.93
2022-07-30T02:25:42.208Z,8.65
2022-07-30T02:28:13.007Z,7.68
2022-07-30T02:30:52.697Z,7.25
2022-07-30T02:33:28.660Z,8.52
2022-07-30T02:35:57.051Z,9.80
2022-07-30T02:38:28.016Z,9.85
2022-07-30T02:40:58.258Z,7.13
2022-07-30T02:43:26.726Z,7.15
2022-07-30T02:45:53.939Z,7.43
2022-07-30T02:48:34.340Z,10.07
2022-07-30T02:51:04.238Z,11.90
2022-07-30T02:53:32.864Z,11.05
2022-07-30T02:56:01.959Z,8.20
2022-07-30T02:58:29.380Z,10.70
2022-07-30T03:00:57.632Z,7.75
2022-07-30T03:03:29.132Z,9.73
2022-07-30T03:05:57.593Z,11.02
2022-07-30T03:08:27.810Z,12.70
2022-07-30T03:10:56.311Z,11.77
2022-07-30T03:13:25.130Z,9.27
2022-07-30T03:15:53.947Z,8.57
2022-07-30T03:18:22.182Z,11.05
2022-07-30T03:20:53.571Z,8.05
2022-07-30T03:23:21.350Z,10.48
2022-07-30T03:25:54.591Z,9.45
2022-07-30T03:28:23.608Z,11.25
2022-07-30T03:30:52.114Z,12.45
2022-07-30T03:33:20.237Z,12.77
2022-07-30T03:35:49.340Z,12.27
2022-07-30T03:38:16.979Z,13.15
2022-07-30T03:40:45.461Z,11.10
2022-07-30T03:43:32.316Z,10.68
2022-07-30T03:46:03.798Z,9.05
2022-07-30T03:48:35.319Z,9.88
2022-07-30T03:51:07.855Z,10.35
2022-07-30T03:53:35.103Z,10.05
2022-07-30T03:56:20.852Z,9.18
2022-07-30T03:58:53.598Z,8.05
2022-07-30T04:01:25.082Z,9.45
2022-07-30T04:03:55.222Z,9.60
2022-07-30T04:06:22.671Z,9.23
2022-07-30T04:08:49.371Z,8.73
2022-07-30T04:11:16.157Z,9.27
2022-07-30T04:13:47.482Z,8.68
2022-07-30T04:16:39.549Z,9.15
2022-07-30T04:19:35.908Z,8.45
2022-07-30T04:22:03.272Z,7.95
2022-07-30T04:24:33.657Z,10.18
2022-07-30T04:27:02.445Z,8.82
2022-07-30T04:29:30.773Z,11.23
2022-07-30T04:31:58.159Z,8.43
2022-07-30T04:34:53.216Z,9.70
2022-07-30T04:37:38.981Z,9.77
2022-07-30T04:40:06.607Z,11.68
2022-07-30T04:42:33.347Z,9.63
2022-07-30T04:45:11.805Z,9.88
2022-07-30T04:47:49.854Z,11.38
2022-07-30T04:50:22.603Z,9.73
2022-07-30T04:52:51.136Z,7.93
2022-07-30T04:55:27.193Z,9.70
2022-07-30T04:57:55.104Z,14.68
2022-07-30T05:00:22.199Z,11.70
2022-07-30T05:02:52.016Z,9.23
2022-07-30T05:05:20.953Z,10.52
2022-07-30T05:07:48.782Z,9.32
2022-07-30T05:10:15.904Z,10.90
2022-07-30T05:12:42.915Z,7.90
2022-07-30T05:15:11.356Z,8.07
2022-07-30T05:17:38.259Z,9.18
2022-07-30T05:20:08.660Z,10.00
2022-07-30T05:22:58.656Z,10.55
2022-07-30T05:25:25.698Z,11.00
2022-07-30T05:27:58.285Z,10.63
2022-07-30T05:30:27.767Z,12.05
2022-07-30T05:32:57.786Z,9.60
2022-07-30T05:35:28.317Z,13.23
2022-07-30T05:37:55.391Z,10.27
2022-07-30T05:40:22.289Z,8.82
2022-07-30T05:43:07.441Z,9.48
2022-07-30T05:45:34.196Z,9.68
2022-07-30T05:48:00.965Z,12.38
2022-07-30T05:50:28.000Z,10.85
2022-07-30T05:52:56.107Z,9.52
2022-07-30T05:55:43.062Z,11.98
2022-07-30T05:58:29.938Z,9.20
2022-07-30T06:00:56.985Z,10.77
2022-07-30T06:03:27.172Z,11.30
2022-07-30T06:06:13.123Z,9.05
2022-07-30T06:08:40.008Z,9.48
2022-07-30T06:11:08.976Z,10.00
2022-07-30T06:13:38.535Z,8.88
2022-07-30T06:16:05.723Z,10.35
2022-07-30T06:18:34.332Z,10.27
2022-07-30T06:21:02.986Z,8.32
2022-07-30T06:23:59.271Z,8.48
2022-07-30T06:26:48.899Z,8.60
2022-07-30T06:29:19.518Z,8.07
2022-07-30T06:31:46.221Z,9.23
2022-07-30T06:34:12.957Z,11.52
2022-07-30T06:36:42.516Z,7.55
2022-07-30T06:39:14.894Z,8.25
2022-07-30T06:42:20.470Z,7.65
2022-07-30T06:45:06.456Z,8.90
2022-07-30T06:47:59.918Z,10.77
2022-07-30T06:50:29.588Z,7.78
2022-07-30T06:52:56.427Z,14.00
2022-07-30T06:55:25.703Z,8.40
2022-07-30T06:57:57.156Z,7.47
2022-07-30T07:00:44.889Z,11.98
2022-07-30T07:03:13.718Z,9.35
2022-07-30T07:05:40.647Z,9.32
2022-07-30T07:08:07.397Z,7.97
2022-07-30T07:10:38.680Z,9.87
2022-07-30T07:13:22.143Z,9.85
2022-07-30T07:15:49.431Z,9.77
2022-07-30T07:18:20.067Z,9.50
2022-07-30T07:20:52.091Z,10.55
2022-07-30T07:23:19.825Z,9.32
2022-07-30T07:25:49.310Z,7.43
2022-07-30T07:28:16.624Z,7.78
2022-07-30T07:30:44.616Z,12.00
2022-07-30T07:33:13.393Z,9.38
2022-07-30T07:35:49.526Z,11.13
2022-07-30T07:38:24.880Z,9.98
2022-07-30T07:40:53.630Z,7.15
2022-07-30T07:43:20.383Z,9.25
2022-07-30T07:45:47.175Z,9.98
2022-07-30T07:48:14.171Z,7.45
2022-07-30T07:50:59.761Z,11.93
2022-07-30T07:53:29.789Z,8.63
2022-07-30T07:55:57.385Z,8.32
2022-07-30T07:58:26.461Z,8.57
2022-07-30T08:03:36.865Z,8.60
2022-07-30T08:06:18.839Z,10.75
2022-07-30T08:09:17.704Z,8.27
2022-07-30T08:12:04.164Z,7.97
2022-07-30T08:14:51.096Z,7.53
2022-07-30T08:17:55.989Z,7.63
2022-07-30T08:20:35.917Z,6.55
2022-07-30T08:23:02.733Z,9.10
2022-07-30T08:25:29.542Z,9.75
2022-07-30T08:27:56.495Z,7.57
2022-07-30T08:30:24.815Z,6.10
2022-07-30T08:32:51.598Z,10.10
2022-07-30T08:35:19.948Z,6.72
2022-07-30T08:37:46.768Z,9.30
2022-07-30T08:40:15.054Z,9.23
2022-07-30T08:42:52.721Z,9.95
2022-07-30T08:45:20.604Z,7.47
2022-07-30T08:48:16.704Z,8.38
2022-07-30T08:50:46.160Z,6.35
2022-07-30T08:53:48.712Z,5.25
2022-07-30T08:56:16.398Z,6.57
2022-07-30T08:58:46.057Z,10.10
2022-07-30T09:01:16.231Z,6.10
2022-07-30T09:03:44.050Z,6.82
2022-07-30T09:06:11.723Z,7.38
2022-07-30T09:08:38.483Z,7.55
2022-07-30T09:11:05.304Z,7.63
2022-07-30T09:13:35.282Z,8.98
2022-07-30T09:16:02.861Z,6.63
2022-07-30T09:18:34.121Z,5.53
2022-07-30T09:21:14.396Z,6.00
2022-07-30T09:23:41.634Z,6.18
2022-07-30T09:26:35.223Z,5.63
2022-07-30T09:29:28.661Z,4.03
2022-07-30T09:32:14.046Z,7.45
2022-07-30T09:35:12.976Z,6.18
2022-07-30T09:38:12.608Z,3.78
2022-07-30T09:41:00.118Z,4.68
2022-07-30T09:43:46.326Z,3.90
2022-07-30T09:46:20.798Z,6.57
2022-07-30T09:48:48.575Z,5.05
2022-07-30T09:51:16.154Z,4.78
2022-07-30T09:53:54.739Z,3.42
2022-07-30T09:56:25.960Z,7.80
2022-07-30T09:58:53.884Z,9.00
2022-07-30T10:01:24.112Z,4.57
2022-07-30T10:04:36.540Z,6.05
2022-07-30T10:07:25.329Z,5.32
2022-07-30T10:10:00.385Z,5.07
2022-07-30T10:12:28.923Z,5.30
2022-07-30T10:15:01.939Z,6.72
2022-07-30T10:17:34.344Z,3.13
2022-07-30T10:20:18.335Z,4.18
2022-07-30T10:23:09.312Z,4.00
2022-07-30T10:25:49.617Z,5.63
2022-07-30T10:28:53.443Z,5.40
2022-07-30T10:31:48.072Z,5.05
2022-07-30T10:34:07.759Z,4.78
2022-07-30T10:36:35.961Z,3.30
2022-07-30T10:39:03.531Z,5.20
2022-07-30T10:41:48.221Z,2.97
2022-07-30T10:44:27.354Z,3.35
2022-07-30T10:46:54.737Z,5.20
2022-07-30T10:49:25.735Z,4.05
2022-07-30T10:51:57.483Z,4.68
2022-07-30T10:54:33.592Z,4.35
2022-07-30T10:57:04.604Z,3.75
2022-07-30T10:59:58.695Z,5.53
2022-07-30T11:02:30.653Z,4.30
2022-07-30T11:05:17.310Z,2.58
2022-07-30T11:07:47.831Z,5.38
2022-07-30T11:10:43.938Z,6.35
2022-07-30T11:13:10.907Z,3.20
2022-07-30T11:16:04.143Z,7.30
2022-07-30T11:19:53.146Z,4.63
2022-07-30T11:22:22.912Z,4.53
2022-07-30T11:24:50.425Z,3.55
2022-07-30T11:27:36.938Z,2.90
2022-07-30T11:30:29.454Z,2.70
2022-07-30T11:33:05.238Z,2.83
2022-07-30T11:35:35.173Z,4.43
2022-07-30T11:38:18.719Z,2.90
2022-07-30T11:40:45.774Z,4.95
2022-07-30T11:43:34.923Z,7.03
2022-07-30T11:46:12.316Z,3.10
2022-07-30T11:48:57.467Z,5.32
2022-07-30T11:51:24.643Z,2.85
2022-07-30T11:54:07.163Z,2.30
2022-07-30T11:56:34.339Z,2.67
2022-07-30T11:59:08.306Z,2.38
2022-07-30T12:01:35.673Z,7.70
2022-07-30T12:04:04.918Z,2.53
2022-07-30T12:06:36.528Z,4.00
2022-07-30T12:09:03.505Z,3.63
2022-07-30T12:11:35.279Z,2.53
2022-07-30T12:14:02.667Z,3.17
2022-07-30T12:16:31.078Z,3.78
2022-07-30T12:19:09.527Z,4.63
2022-07-30T12:21:36.787Z,3.85
2022-07-30T12:24:10.006Z,2.60
2022-07-30T12:26:37.072Z,3.90
2022-07-30T12:29:06.829Z,4.50
2022-07-30T12:31:34.049Z,5.70
2022-07-30T12:34:05.110Z,2.30
2022-07-30T12:36:34.014Z,2.28
2022-07-30T12:39:02.752Z,2.97
2022-07-30T12:41:42.639Z,4.53
2022-07-30T12:44:10.131Z,2.30
2022-07-30T12:46:43.659Z,4.57
2022-07-30T12:49:22.453Z,4.20
2022-07-30T12:51:52.390Z,2.40
2022-07-30T12:54:27.541Z,3.78
2022-07-30T12:57:00.658Z,2.60
2022-07-30T12:59:28.466Z,3.40
2022-07-30T13:01:57.508Z,2.25
2022-07-30T13:04:24.752Z,2.05
2022-07-30T13:07:11.298Z,4.43
2022-07-30T13:09:39.973Z,4.03
2022-07-30T13:12:07.196Z,2.38
2022-07-30T13:14:34.384Z,4.30
2022-07-30T13:17:04.015Z,6.43
2022-07-30T13:19:31.261Z,7.70
2022-07-30T13:21:58.179Z,2.97
2022-07-30T13:24:24.866Z,5.03
2022-07-30T13:26:51.615Z,3.95
2022-07-30T13:29:18.356Z,5.53
2022-07-30T13:31:45.065Z,3.58
2022-07-30T13:34:12.602Z,3.78
2022-07-30T13:36:39.699Z,3.13
2022-07-30T13:39:06.514Z,3.42
2022-07-30T13:41:34.192Z,4.05
2022-07-30T13:44:00.875Z,2.17
2022-07-30T13:46:27.600Z,2.33
2022-07-30T13:48:55.042Z,3.40
2022-07-30T13:51:21.950Z,2.58
2022-07-30T13:53:48.655Z,4.15
2022-07-30T13:56:16.930Z,5.00
2022-07-30T13:58:46.939Z,4.50
2022-07-30T14:01:17.783Z,3.00
2022-07-30T14:03:49.962Z,2.88
2022-07-30T14:06:18.813Z,2.22
2022-07-30T14:08:45.617Z,2.80
2022-07-30T14:11:12.618Z,2.90
2022-07-30T14:13:39.569Z,3.13
2022-07-30T14:16:22.675Z,2.30
2022-07-30T14:18:53.333Z,3.05
2022-07-30T14:21:20.027Z,3.88
2022-07-30T14:23:46.800Z,1.75
2022-07-30T14:26:14.184Z,2.53
2022-07-30T14:28:40.917Z,2.67
2022-07-30T14:31:07.757Z,2.30
2022-07-30T14:33:34.436Z,3.97
2022-07-30T14:36:01.143Z,1.75
2022-07-30T14:38:27.891Z,3.78
2022-07-30T14:40:54.574Z,4.82
2022-07-30T14:43:21.306Z,2.45
2022-07-30T14:45:50.768Z,1.40
2022-07-30T14:48:17.698Z,2.95
2022-07-30T14:51:11.791Z,2.15
2022-07-30T14:53:31.997Z,3.65
2022-07-30T14:55:58.764Z,2.65
2022-07-30T14:58:25.826Z,1.70
2022-07-30T15:00:52.871Z,3.17
2022-07-30T15:03:20.209Z,3.30
2022-07-30T15:05:52.096Z,2.58
2022-07-30T15:08:19.526Z,2.28
2022-07-30T15:10:46.262Z,4.70
2022-07-30T15:13:12.940Z,2.25
2022-07-30T15:15:41.346Z,1.90
2022-07-30T15:18:10.856Z,2.28
2022-07-30T15:20:37.644Z,3.00
2022-07-30T15:23:04.457Z,3.63
2022-07-30T15:25:32.472Z,4.32
2022-07-30T15:27:59.231Z,2.40
2022-07-30T15:30:25.966Z,2.28
2022-07-30T15:32:54.350Z,2.28
2022-07-30T15:35:21.379Z,2.63
2022-07-30T15:37:48.293Z,3.28
2022-07-30T15:40:15.052Z,3.95
2022-07-30T15:42:42.770Z,1.88
2022-07-30T15:45:18.295Z,1.98
2022-07-30T15:47:46.060Z,1.23
2022-07-30T15:50:13.393Z,2.42
2022-07-30T15:52:40.158Z,2.58
2022-07-30T15:55:07.355Z,2.60
2022-07-30T15:57:34.012Z,3.90
2022-07-30T16:00:00.927Z,2.53
2022-07-30T16:02:28.069Z,6.25
2022-07-30T16:04:54.858Z,3.85
2022-07-30T16:07:21.716Z,2.90
2022-07-30T16:09:48.394Z,2.63
2022-07-30T16:12:15.055Z,1.92
2022-07-30T16:14:41.730Z,2.88
2022-07-30T16:17:13.692Z,2.45
2022-07-30T16:19:44.993Z,3.50
2022-07-30T16:22:12.465Z,2.83
2022-07-30T16:24:48.832Z,3.20
2022-07-30T16:27:17.259Z,2.33
2022-07-30T16:29:43.967Z,4.60
2022-07-30T16:32:10.840Z,4.32
2022-07-30T16:34:37.659Z,4.80
2022-07-30T16:37:04.572Z,3.33
2022-07-30T16:39:31.861Z,2.92
2022-07-30T16:41:58.607Z,3.03
2022-07-30T16:44:27.076Z,2.00
2022-07-30T16:46:53.964Z,3.42
2022-07-30T16:49:20.726Z,2.28
2022-07-30T16:51:47.510Z,1.75
2022-07-30T16:54:14.179Z,2.00
2022-07-30T16:56:40.885Z,1.98
2022-07-30T16:59:11.829Z,2.53
2022-07-30T17:01:40.431Z,2.08
2022-07-30T17:04:07.134Z,2.83
2022-07-30T17:06:34.001Z,2.03
2022-07-30T17:09:00.623Z,5.78
2022-07-30T17:11:47.441Z,2.00
2022-07-30T17:14:14.882Z,3.10
2022-07-30T17:16:41.859Z,1.92
2022-07-30T17:19:09.289Z,3.28
2022-07-30T17:21:38.071Z,2.40
2022-07-30T17:24:11.097Z,2.00
2022-07-30T17:26:40.485Z,4.82
2022-07-30T17:29:10.776Z,3.13
2022-07-30T17:31:43.269Z,5.07
2022-07-30T17:34:10.882Z,3.15
2022-07-30T17:36:38.775Z,2.05
2022-07-30T17:39:05.993Z,3.05
2022-07-30T17:41:32.934Z,2.58
2022-07-30T17:43:59.828Z,3.33
2022-07-30T17:46:27.194Z,2.53
2022-07-30T17:48:54.200Z,2.92
2022-07-30T17:51:20.939Z,3.92
2022-07-30T17:53:47.583Z,1.85
2022-07-30T17:56:26.666Z,3.05
2022-07-30T17:58:54.194Z,1.58
2022-07-30T18:01:21.026Z,2.13
2022-07-30T18:03:47.718Z,4.50
2022-07-30T18:06:14.400Z,1.83
2022-07-30T18:08:41.083Z,3.47
2022-07-30T18:11:10.665Z,2.35
2022-07-30T18:13:40.271Z,2.10
2022-07-30T18:16:08.324Z,5.00
2022-07-30T18:18:35.044Z,2.30
2022-07-30T18:21:01.976Z,2.20
2022-07-30T18:23:34.993Z,3.67
2022-07-30T18:26:02.015Z,4.65
2022-07-30T18:28:29.247Z,2.08
2022-07-30T18:30:56.022Z,2.78
2022-07-30T18:33:23.148Z,3.42
2022-07-30T18:35:49.979Z,2.80
2022-07-30T18:38:16.776Z,2.65
2022-07-30T18:40:44.978Z,2.78
2022-07-30T18:43:11.652Z,2.38
2022-07-30T18:45:38.376Z,3.60
2022-07-30T18:48:05.478Z,3.70
2022-07-30T18:50:32.966Z,2.83
2022-07-30T18:53:00.735Z,2.90
2022-07-30T18:55:41.832Z,2.97
2022-07-30T18:58:08.497Z,4.28
2022-07-30T19:00:35.836Z,4.80
2022-07-30T19:03:02.891Z,3.10
2022-07-30T19:05:29.805Z,3.90
2022-07-30T19:07:58.293Z,3.05
2022-07-30T19:10:26.622Z,2.95
2022-07-30T19:12:54.505Z,3.13
2022-07-30T19:15:21.481Z,2.35
2022-07-30T19:17:51.818Z,2.97
2022-07-30T19:20:19.575Z,3.55
2022-07-30T19:22:46.937Z,2.85
2022-07-30T19:25:13.926Z,3.03
2022-07-30T19:27:40.689Z,2.42
2022-07-30T19:30:07.942Z,3.90
2022-07-30T19:32:34.611Z,3.00
2022-07-30T19:35:01.320Z,2.25
2022-07-30T19:37:28.016Z,2.72
2022-07-30T19:40:05.368Z,3.78
2022-07-30T19:42:33.971Z,5.97
2022-07-30T19:45:11.160Z,6.50
2022-07-30T19:47:39.701Z,4.82
2022-07-30T19:50:07.644Z,2.65
2022-07-30T19:52:36.264Z,4.30
2022-07-30T19:55:03.940Z,5.00
2022-07-30T19:57:52.882Z,4.47
2022-07-30T20:00:25.131Z,3.08
2022-07-30T20:02:55.646Z,2.90
2022-07-30T20:05:25.264Z,2.67
2022-07-30T20:07:57.369Z,20.77
2022-07-30T20:10:24.787Z,16.60
2022-07-30T20:12:52.539Z,53.78
2022-07-30T20:15:20.084Z,17.92
2022-07-30T20:17:47.162Z,14.77
2022-07-30T20:20:15.769Z,10.45
2022-07-30T20:22:43.343Z,10.73
2022-07-30T20:25:11.224Z,10.75
2022-07-30T20:27:40.579Z,9.20
2022-07-30T20:30:09.305Z,6.35
2022-07-30T20:32:37.772Z,4.78
2022-07-30T20:35:07.474Z,6.22
2022-07-30T20:37:40.256Z,11.07
2022-07-30T20:40:21.711Z,13.10
2022-07-30T20:42:49.994Z,29.20
2022-07-30T20:45:16.850Z,7.70
2022-07-30T20:47:52.427Z,6.60
2022-07-30T20:50:30.900Z,4.80
2022-07-30T20:52:58.764Z,5.10
2022-07-30T20:55:26.590Z,4.50
2022-07-30T20:58:00.271Z,6.32
2022-07-30T21:00:33.965Z,4.00
2022-07-30T21:03:03.212Z,3.58
2022-07-30T21:05:31.847Z,3.50
2022-07-30T21:07:58.814Z,5.15
2022-07-30T21:10:25.552Z,5.60
2022-07-30T21:12:56.444Z,5.60
2022-07-30T21:15:25.334Z,5.00
2022-07-30T21:17:53.251Z,5.63
2022-07-30T21:20:27.433Z,6.35
2022-07-30T21:22:55.965Z,4.40
2022-07-30T21:25:23.524Z,8.30
2022-07-30T21:28:02.705Z,4.50
2022-07-30T21:30:30.928Z,5.30
2022-07-30T21:32:57.839Z,4.28
2022-07-30T21:35:24.942Z,4.22
2022-07-30T21:37:58.349Z,3.60
2022-07-30T21:40:25.168Z,4.00
2022-07-30T21:42:51.880Z,3.40
2022-07-30T21:45:19.890Z,4.25
2022-07-30T21:47:47.525Z,3.45
2022-07-30T21:50:18.767Z,5.15
2022-07-30T21:52:47.559Z,4.53
2022-07-30T21:55:14.310Z,6.78
2022-07-30T21:57:42.182Z,5.88
2022-07-30T22:00:14.996Z,5.35
2022-07-30T22:02:52.757Z,7.43
2022-07-30T22:05:20.172Z,5.38
2022-07-30T22:07:50.098Z,4.95
2022-07-30T22:10:21.295Z,4.50
2022-07-30T22:12:48.698Z,4.20
2022-07-30T22:15:15.499Z,5.18
2022-07-30T22:17:58.346Z,4.82
2022-07-30T22:20:29.046Z,5.07
2022-07-30T22:22:57.599Z,5.28
2022-07-30T22:25:43.748Z,4.53
2022-07-30T22:28:12.088Z,4.78
2022-07-30T22:30:40.811Z,5.93
2022-07-30T22:33:15.162Z,4.57
2022-07-30T22:35:46.713Z,5.75
2022-07-30T22:38:17.361Z,5.85
2022-07-30T22:40:46.465Z,5.00
2022-07-30T22:43:13.984Z,7.65
2022-07-30T22:48:29.455Z,4.93
2022-07-30T22:50:56.194Z,5.35
2022-07-30T22:54:03.588Z,4.28
2022-07-30T22:56:15.505Z,5.80
2022-07-30T22:58:42.839Z,5.05
2022-07-30T23:01:09.626Z,7.40
2022-07-30T23:03:37.778Z,4.25
2022-07-30T23:06:04.535Z,5.75
2022-07-30T23:08:33.310Z,5.68
2022-07-30T23:11:00.296Z,6.75
2022-07-30T23:12:30.392Z,5.70
2022-07-30T23:13:28.676Z,5.07
2022-07-30T23:15:55.655Z,5.00
2022-07-30T23:18:22.331Z,4.68
2022-07-30T23:20:49.009Z,5.05
2022-07-30T23:23:15.694Z,5.18
2022-07-30T23:25:42.374Z,5.88
2022-07-30T23:28:09.049Z,5.07
2022-07-30T23:30:35.853Z,5.40
2022-07-30T23:33:02.947Z,4.13
2022-07-30T23:35:30.378Z,5.95
2022-07-30T23:37:57.396Z,6.50
2022-07-30T23:40:24.171Z,4.97
2022-07-30T23:42:51.916Z,6.18
2022-07-30T23:45:19.024Z,6.05
2022-07-30T23:48:00.800Z,8.82
2022-07-30T23:50:29.794Z,6.10
2022-07-30T23:52:56.463Z,8.18
2022-07-30T23:55:23.320Z,6.90
2022-07-30T23:57:49.986Z,5.68
